Terminal Aerodrome Forecast
Issued by NWS Wilmington, OH

Current Version | Previous Version | Graphics & Text | Print | Product List | Glossary On
Versions: 1 2 3 4 5 6 7 8 9 10 11 12 13 14 15 16 17 18 19 20 21 22 23 24 25 26 27
000
FTUS41 KILN 310400 AAA
TAFILN
TAF AMD
KILN 310401Z 3104/3124 21006KT 2SM -SHRA BR SCT050 OVC100
     FM310700 20006KT 2SM -SHRA BR OVC035
     FM311000 20006KT 1SM -SHRA BR OVC012
     FM311300 20006KT 5SM -SHRA BR OVC007
     FM311600 20009KT P6SM BKN015
     FM311800 20008KT P6SM BKN025=

USA.gov is the U.S. government's official web portal to all federal, state and local government web resources and services.